Time;durP1;ratioP1;P1;durP2;ratioP2;P2;SDS_P1;SDS_P2;PMS_P1;PMS_P2;Temp;Humidity;BMP_temperature;BMP_pressure;BME280_temperature;BME280_humidity;BME280_pressure;Samples;Min_cycle;Max_cycle;Signal;HPM_P1;HPM_P2
2023/03/18 00:01:30;;;;;;;4.23;3.50;;;14.90;57.50;;;17.66;41.78;100662.66;5129965;27;20191;-56
2023/03/18 00:03:57;;;;;;;5.03;3.83;;;14.90;57.30;;;17.66;41.96;100658.16;5115252;28;20206;-56
2023/03/18 00:06:24;;;;;;;3.80;3.17;;;14.90;57.60;;;17.69;41.91;100656.84;5112308;28;20180;-56
2023/03/18 00:08:51;;;;;;;4.90;3.63;;;14.90;57.60;;;17.72;41.94;100659.09;5130334;27;20195;-56
2023/03/18 00:11:20;;;;;;;4.97;3.40;;;15.00;57.70;;;17.75;42.01;100663.97;5119434;27;20234;-55
2023/03/18 00:13:49;;;;;;;3.77;3.47;;;15.00;58.00;;;17.74;42.10;100659.66;5114656;28;20211;-56
2023/03/18 00:16:16;;;;;;;3.43;3.13;;;14.90;57.90;;;17.73;42.05;100658.06;5114918;27;20207;-56
2023/03/18 00:18:43;;;;;;;6.87;3.37;;;15.00;58.00;;;17.76;42.10;100660.28;5115007;28;20196;-55
2023/03/18 00:21:11;;;;;;;7.87;3.30;;;14.90;58.00;;;17.76;42.16;100661.06;5115056;28;20179;-59
2023/03/18 00:23:38;;;;;;;5.57;3.70;;;14.90;58.10;;;17.75;42.37;100664.78;5095413;28;20665;-55
2023/03/18 00:26:07;;;;;;;5.33;3.80;;;14.90;58.40;;;17.70;42.95;100674.47;5095135;28;20207;-58
2023/03/18 00:28:36;;;;;;;5.47;3.40;;;15.00;59.00;;;17.65;42.90;100674.31;5094263;28;20200;-56
2023/03/18 00:31:07;;;;;;;4.73;3.57;;;14.90;59.10;;;17.62;42.98;100666.78;5094574;28;20630;-57
2023/03/18 00:33:37;;;;;;;4.87;3.37;;;14.90;59.10;;;17.58;43.26;100674.41;5094377;28;20216;-57
2023/03/18 00:36:05;;;;;;;6.30;3.50;;;14.90;59.40;;;17.54;43.43;100673.22;5094673;28;20196;-55
2023/03/18 00:38:34;;;;;;;4.43;3.03;;;14.90;59.70;;;17.51;43.72;100678.94;5095755;28;20200;-57
2023/03/18 00:41:10;;;;;;;4.40;3.50;;;14.80;59.90;;;17.47;43.76;100673.25;5094850;28;20188;-56
2023/03/18 00:43:45;;;;;;;4.80;3.23;;;14.90;60.40;;;17.45;44.11;100675.31;5094450;28;20676;-57
2023/03/18 00:46:16;;;;;;;4.17;3.13;;;14.80;60.40;;;17.44;44.12;100668.38;5096719;28;20264;-57
2023/03/18 00:48:45;;;;;;;4.00;3.50;;;14.80;60.70;;;17.44;44.35;100668.38;5114887;28;20192;-57
2023/03/18 00:51:15;;;;;;;3.33;3.00;;;14.80;61.10;;;17.45;44.44;100670.00;5114457;28;20222;-55
2023/03/18 00:53:45;;;;;;;5.53;3.80;;;14.80;61.20;;;17.43;44.90;100672.06;5112462;28;20220;-56
2023/03/18 00:56:15;;;;;;;7.30;3.80;;;14.80;61.70;;;17.36;45.13;100671.31;5115145;28;20233;-58
2023/03/18 00:58:42;;;;;;;4.63;3.30;;;14.70;62.70;;;17.32;45.19;100672.81;5107806;28;20195;-58
2023/03/18 01:01:10;;;;;;;4.73;3.33;;;14.70;62.10;;;17.33;44.92;100671.75;5114386;28;20187;-57
2023/03/18 01:03:41;;;;;;;5.17;3.57;;;14.70;62.00;;;17.31;45.03;100671.16;5113898;28;20247;-57
2023/03/18 01:06:11;;;;;;;5.17;3.60;;;14.70;62.30;;;17.33;45.07;100674.41;5114590;28;20274;-57
2023/03/18 01:08:40;;;;;;;4.77;3.40;;;14.70;62.20;;;17.36;44.90;100673.97;5128275;27;20187;-57
2023/03/18 01:11:08;;;;;;;8.17;3.70;;;14.70;62.20;;;17.33;45.16;100681.59;5119848;27;20688;-57
2023/03/18 01:13:36;;;;;;;5.60;3.93;;;14.70;62.50;;;17.34;45.47;100673.41;5114313;28;20211;-57
2023/03/18 01:16:05;;;;;;;3.97;3.53;;;14.70;62.80;;;17.25;45.82;100685.38;5113703;28;20627;-62
2023/03/18 01:18:33;;;;;;;5.60;3.57;;;14.70;63.40;;;17.24;45.65;100694.34;5114034;28;20219;-58
2023/03/18 01:21:03;;;;;;;3.50;3.20;;;14.60;63.30;;;17.18;46.10;100686.44;5114185;28;20184;-57
2023/03/18 01:23:30;;;;;;;4.73;3.10;;;14.60;63.90;;;17.13;46.38;100692.44;5113705;28;20211;-57
2023/03/18 01:25:58;;;;;;;3.53;3.23;;;14.60;64.10;;;17.13;46.66;100681.78;5113044;28;20192;-57
2023/03/18 01:28:26;;;;;;;4.20;3.30;;;14.60;64.50;;;17.15;46.71;100689.53;5092346;28;20188;-58
2023/03/18 01:30:54;;;;;;;6.73;3.60;;;14.60;64.70;;;17.17;46.49;100690.94;5093454;28;20209;-57
2023/03/18 01:33:22;;;;;;;4.60;3.17;;;14.60;64.90;;;17.19;46.63;100691.53;5093361;28;20211;-58
2023/03/18 01:35:54;;;;;;;4.23;2.97;;;14.60;65.00;;;17.16;46.64;100681.34;5093374;28;20199;-57
2023/03/18 01:38:24;;;;;;;5.93;3.57;;;14.50;65.40;;;17.16;46.97;100683.19;5093592;28;20177;-57
2023/03/18 01:40:53;;;;;;;3.90;3.50;;;14.60;65.70;;;17.16;46.86;100689.34;5094193;28;20200;-58
2023/03/18 01:43:23;;;;;;;4.53;3.17;;;14.50;65.80;;;17.16;46.89;100685.84;5103773;28;20207;-57
2023/03/18 01:45:53;;;;;;;5.50;3.60;;;14.50;65.80;;;17.12;47.38;100687.31;5114290;28;20184;-56
2023/03/18 01:48:24;;;;;;;4.87;3.60;;;14.40;66.40;;;17.04;47.63;100698.25;5114362;28;20255;-55
2023/03/18 01:50:58;;;;;;;5.43;3.30;;;14.40;66.80;;;16.96;48.07;100695.84;5113200;28;20208;-61
2023/03/18 01:53:35;;;;;;;7.47;4.00;;;14.40;67.80;;;16.90;48.04;100697.53;5113423;28;20208;-57
2023/03/18 01:56:03;;;;;;;4.93;3.43;;;14.30;67.10;;;16.89;48.04;100685.25;5113873;28;20199;-57
2023/03/18 01:58:37;;;;;;;6.70;4.03;;;14.30;67.30;;;16.85;48.95;100689.41;5125821;28;20188;-56
2023/03/18 02:01:12;;;;;;;5.33;3.57;;;14.30;68.40;;;16.77;49.02;100692.31;5093373;28;20200;-58
2023/03/18 02:03:41;;;;;;;6.53;3.53;;;14.20;68.60;;;16.78;48.87;100688.63;5099864;27;20322;-57
2023/03/18 02:06:11;;;;;;;4.67;3.43;;;14.20;68.30;;;16.76;49.03;100680.84;5115002;28;20199;-56
2023/03/18 02:08:39;;;;;;;4.87;3.77;;;14.20;68.90;;;16.71;49.54;100685.22;5105081;27;20197;-57
2023/03/18 02:11:08;;;;;;;4.63;3.40;;;14.10;69.60;;;16.68;49.49;100682.97;5100661;28;20208;-56
2023/03/18 02:13:40;;;;;;;5.60;3.53;;;14.10;69.70;;;16.67;49.65;100682.16;5112248;28;20227;-58
2023/03/18 02:16:14;;;;;;;8.33;4.00;;;14.10;70.00;;;16.65;49.99;100678.09;5116977;28;20245;-57
2023/03/18 02:18:47;;;;;;;6.23;4.13;;;14.00;70.40;;;16.64;50.07;100677.25;5117594;28;20273;-54
2023/03/18 02:21:37;;;;;;;7.43;4.17;;;14.00;70.60;;;16.59;50.27;100663.00;5117373;28;20247;-55
2023/03/18 02:24:22;;;;;;;5.90;3.73;;;14.00;70.80;;;16.60;49.92;100675.25;5116712;28;20580;-56
2023/03/18 02:26:58;;;;;;;5.23;3.90;;;14.00;70.80;;;16.56;50.77;100668.75;5116695;28;20199;-56
2023/03/18 02:29:30;;;;;;;8.07;3.90;;;13.90;71.70;;;16.54;50.43;100662.84;5117223;28;20220;-55
2023/03/18 02:32:02;;;;;;;6.90;3.90;;;13.90;71.50;;;16.51;51.01;100657.91;5117266;28;20200;-56
2023/03/18 02:34:30;;;;;;;5.47;4.27;;;13.90;72.30;;;16.50;51.01;100656.28;5116936;28;20204;-54
2023/03/18 02:36:58;;;;;;;5.23;4.03;;;13.90;72.30;;;16.52;50.89;100657.72;5117290;28;20207;-58
2023/03/18 02:39:26;;;;;;;5.80;4.63;;;13.80;72.10;;;16.50;51.25;100653.63;5116952;28;20196;-56
2023/03/18 02:41:53;;;;;;;6.33;4.13;;;13.80;72.80;;;16.47;51.39;100664.69;5115230;28;20192;-56
2023/03/18 02:44:20;;;;;;;5.27;4.37;;;13.80;72.90;;;16.45;51.58;100661.44;5116484;28;20261;-55
2023/03/18 02:46:54;;;;;;;7.07;5.07;;;13.80;73.50;;;16.38;52.04;100671.31;5117000;28;20690;-56
2023/03/18 02:49:25;;;;;;;6.87;4.00;;;13.70;73.80;;;16.36;51.92;100674.16;5116731;28;20266;-57
2023/03/18 02:51:52;;;;;;;6.20;4.73;;;13.70;73.80;;;16.34;52.34;100686.00;5115388;28;20298;-57
2023/03/18 02:54:22;;;;;;;6.80;4.13;;;13.70;74.10;;;16.26;52.32;100679.09;5116507;27;20247;-57
2023/03/18 02:56:50;;;;;;;7.23;4.43;;;13.70;74.10;;;16.24;52.46;100676.66;5122339;27;20184;-55
2023/03/18 02:59:19;;;;;;;6.83;4.70;;;13.70;74.30;;;16.25;52.47;100688.13;5115747;27;20257;-58
2023/03/18 03:01:51;;;;;;;8.03;4.87;;;13.70;74.50;;;16.24;52.37;100681.97;5116534;28;20180;-56
2023/03/18 03:04:22;;;;;;;5.83;4.77;;;13.60;74.50;;;16.27;52.34;100680.75;5116254;28;20212;-55
2023/03/18 03:06:51;;;;;;;6.63;4.70;;;13.60;74.50;;;16.30;52.49;100687.47;5116571;28;20274;-57
2023/03/18 03:09:19;;;;;;;7.13;4.93;;;13.60;74.60;;;16.27;52.66;100696.69;5135794;27;20195;-58
2023/03/18 03:11:47;;;;;;;5.33;4.67;;;13.60;74.80;;;16.27;52.51;100697.50;5116329;27;20207;-58
2023/03/18 03:14:15;;;;;;;6.37;4.93;;;13.60;74.60;;;16.27;52.08;100708.13;5114877;28;20589;-55
2023/03/18 03:16:42;;;;;;;7.17;5.37;;;13.60;74.90;;;16.24;52.90;100702.41;5114578;28;20195;-57
2023/03/18 03:19:11;;;;;;;6.20;4.70;;;13.60;75.00;;;16.22;52.67;100694.66;5116880;28;20191;-56
2023/03/18 03:21:38;;;;;;;7.77;5.50;;;13.60;76.10;;;16.18;53.32;100687.34;5116108;28;20192;-56
2023/03/18 03:24:06;;;;;;;7.53;5.13;;;13.60;75.50;;;16.20;52.99;100680.78;5116140;28;20212;-57
2023/03/18 03:26:33;;;;;;;9.80;5.23;;;13.60;75.50;;;16.17;53.15;100681.22;5116243;28;20267;-57
2023/03/18 03:29:03;;;;;;;8.13;5.37;;;13.60;75.50;;;16.20;53.15;100691.41;5114156;28;20195;-57
2023/03/18 03:31:30;;;;;;;7.53;5.30;;;13.60;75.30;;;16.22;52.88;100694.66;5115616;28;20223;-60
2023/03/18 03:33:58;;;;;;;9.47;5.63;;;13.60;75.70;;;16.23;53.31;100693.66;5115725;28;20726;-56
2023/03/18 03:36:26;;;;;;;6.53;5.40;;;13.60;75.70;;;16.23;53.38;100698.97;5115969;28;20214;-56
2023/03/18 03:38:53;;;;;;;7.47;5.87;;;13.60;75.90;;;16.19;53.63;100708.38;5116105;28;20188;-57
2023/03/18 03:41:21;;;;;;;8.30;5.50;;;13.60;76.10;;;16.17;53.39;100702.44;5109389;28;20184;-57
2023/03/18 03:43:48;;;;;;;6.97;4.77;;;13.60;76.00;;;16.19;53.51;100700.41;5095566;28;20570;-55
2023/03/18 03:46:15;;;;;;;8.53;5.97;;;13.60;76.10;;;16.16;53.56;100708.00;5099271;27;20203;-57
2023/03/18 03:48:42;;;;;;;10.27;5.30;;;13.60;76.30;;;16.23;53.26;100711.44;5115791;28;20188;-56
2023/03/18 03:51:09;;;;;;;10.30;6.00;;;13.60;75.90;;;16.22;53.05;100702.63;5115518;28;20222;-56
2023/03/18 03:53:38;;;;;;;7.60;5.60;;;13.60;76.10;;;16.22;53.55;100707.94;5115253;28;20203;-57
2023/03/18 03:56:07;;;;;;;7.10;5.70;;;13.60;76.30;;;16.21;53.60;100716.94;5099401;28;20212;-55
2023/03/18 03:58:34;;;;;;;7.87;6.00;;;13.60;76.30;;;16.13;54.17;100717.19;5135467;27;20195;-57
2023/03/18 04:01:03;;;;;;;6.63;5.70;;;13.60;76.60;;;16.15;53.67;100715.13;5136608;27;20188;-56
2023/03/18 04:03:31;;;;;;;8.37;5.67;;;13.60;76.30;;;16.17;53.51;100721.03;5134809;27;20264;-56
2023/03/18 04:05:58;;;;;;;8.43;5.93;;;13.60;76.20;;;16.22;53.73;100717.75;5135939;27;20211;-55
2023/03/18 04:08:25;;;;;;;6.90;5.70;;;13.60;76.30;;;16.28;53.20;100716.91;5123004;27;20229;-57
2023/03/18 04:10:53;;;;;;;6.23;5.63;;;13.70;76.20;;;16.31;53.54;100723.66;5115439;28;20250;-57
2023/03/18 04:13:20;;;;;;;8.53;6.27;;;13.70;76.10;;;16.30;53.31;100724.66;5114764;28;20265;-56
2023/03/18 04:15:47;;;;;;;8.50;5.87;;;13.70;76.20;;;16.31;53.29;100719.13;5115122;28;20648;-56
2023/03/18 04:18:15;;;;;;;7.27;5.53;;;13.70;76.20;;;16.37;53.21;100728.09;5115200;28;20252;-55
2023/03/18 04:20:43;;;;;;;8.53;5.80;;;13.70;76.10;;;16.36;53.43;100727.28;5115084;28;20188;-57
2023/03/18 04:23:10;;;;;;;6.20;5.50;;;13.70;76.30;;;16.39;53.24;100721.56;5114747;27;20644;-54
2023/03/18 04:25:37;;;;;;;9.47;5.53;;;13.70;76.70;;;16.40;53.15;100723.19;5115077;28;20240;-57
2023/03/18 04:28:05;;;;;;;10.00;6.97;;;13.70;76.20;;;16.41;53.14;100723.97;5114577;28;20717;-57
2023/03/18 04:30:32;;;;;;;8.17;6.13;;;13.70;76.40;;;16.40;53.13;100720.53;5114702;28;20558;-57
2023/03/18 04:33:02;;;;;;;7.00;5.40;;;13.70;76.20;;;16.38;53.14;100721.78;5102457;28;20212;-57
2023/03/18 04:35:29;;;;;;;7.43;5.50;;;13.70;76.10;;;16.42;52.96;100725.63;5094210;28;20219;-57
2023/03/18 04:37:57;;;;;;;8.33;6.00;;;13.80;76.00;;;16.42;53.01;100736.25;5094685;28;20208;-54
2023/03/18 04:40:24;;;;;;;10.57;6.20;;;13.70;76.00;;;16.42;52.73;100736.25;5094488;28;20829;-55
2023/03/18 04:42:51;;;;;;;7.60;5.93;;;13.70;76.00;;;16.37;53.12;100741.38;5100902;28;20220;-57
2023/03/18 04:45:19;;;;;;;9.07;6.80;;;13.70;76.30;;;16.33;53.14;100737.53;5114769;28;20218;-57
2023/03/18 04:47:46;;;;;;;8.37;6.03;;;13.70;76.00;;;16.31;53.56;100739.59;5094563;28;20278;-56
2023/03/18 04:50:14;;;;;;;11.70;6.40;;;13.70;76.20;;;16.32;53.41;100751.81;5094556;28;20566;-57
2023/03/18 04:52:43;;;;;;;8.73;6.60;;;13.70;76.30;;;16.31;53.32;100752.88;5093790;28;20220;-56
2023/03/18 04:55:15;;;;;;;9.40;6.07;;;13.70;76.60;;;16.31;53.50;100750.22;5094321;28;20281;-57
2023/03/18 04:57:43;;;;;;;7.60;5.30;;;13.70;76.60;;;16.37;53.26;100758.16;5119420;27;20262;-54
2023/03/18 05:00:16;;;;;;;6.93;6.13;;;13.70;76.30;;;16.40;52.71;100748.94;5124237;27;20605;-57
2023/03/18 05:02:44;;;;;;;8.23;6.80;;;13.70;76.50;;;16.42;53.24;100757.50;5129617;27;20268;-56
2023/03/18 05:05:11;;;;;;;8.53;6.17;;;13.70;76.60;;;16.41;53.14;100750.56;5114511;28;20191;-55
2023/03/18 05:07:38;;;;;;;8.13;6.77;;;13.70;76.60;;;16.40;53.09;100748.94;5119648;27;20574;-57
2023/03/18 05:10:07;;;;;;;8.83;5.97;;;13.70;76.60;;;16.40;53.04;100754.25;5129127;27;20237;-55
2023/03/18 05:12:35;;;;;;;8.50;6.73;;;13.70;76.40;;;16.35;53.43;100746.09;5113836;28;20207;-55
2023/03/18 05:15:03;;;;;;;8.83;6.77;;;13.70;76.70;;;16.32;53.39;100754.47;5094259;28;20188;-55
2023/03/18 05:17:30;;;;;;;8.33;6.67;;;13.70;76.60;;;16.27;53.33;100750.63;5110408;28;20203;-57
2023/03/18 05:19:59;;;;;;;11.80;6.57;;;13.60;76.80;;;16.26;53.24;100754.28;5114729;28;20200;-57
2023/03/18 05:22:26;;;;;;;7.90;5.77;;;13.60;76.60;;;16.20;53.73;100760.47;5113586;28;20207;-56
2023/03/18 05:24:53;;;;;;;7.23;6.63;;;13.60;76.60;;;16.12;53.95;100752.72;5113987;28;20218;-57
2023/03/18 05:27:20;;;;;;;7.73;6.63;;;13.60;77.20;;;16.10;53.83;100765.41;5113091;28;20524;-57
2023/03/18 05:29:47;;;;;;;9.80;6.00;;;13.50;77.00;;;16.07;53.69;100765.00;5114440;28;20227;-57
2023/03/18 05:32:15;;;;;;;7.17;6.47;;;13.50;77.10;;;16.03;54.00;100769.91;5113599;28;20605;-56
2023/03/18 05:34:42;;;;;;;7.70;6.87;;;13.50;77.30;;;16.02;54.20;100760.31;5113703;28;20239;-54
2023/03/18 05:37:14;;;;;;;9.83;6.70;;;13.50;77.30;;;16.02;54.04;100752.34;5114268;28;20188;-57
2023/03/18 05:39:42;;;;;;;7.70;6.33;;;13.40;77.50;;;16.04;53.89;100758.28;5114060;28;20191;-56
2023/03/18 05:42:11;;;;;;;8.17;5.50;;;13.40;77.30;;;16.12;53.74;100747.41;5098828;28;20218;-57
2023/03/18 05:44:39;;;;;;;6.80;5.63;;;13.40;77.30;;;16.21;53.57;100756.78;5097775;28;20239;-57
2023/03/18 05:47:07;;;;;;;9.47;7.00;;;13.40;77.20;;;16.27;53.19;100750.63;5097897;28;20188;-57
2023/03/18 05:49:34;;;;;;;8.70;6.10;;;13.40;77.30;;;16.34;52.83;100750.59;5097706;28;20520;-54
2023/03/18 05:52:02;;;;;;;8.27;6.30;;;13.40;77.10;;;16.39;52.63;100761.41;5097712;28;20212;-57
2023/03/18 05:54:30;;;;;;;9.97;6.03;;;13.40;77.00;;;16.44;52.67;100766.06;5103546;28;20636;-56
2023/03/18 05:56:58;;;;;;;9.73;6.70;;;13.50;77.00;;;16.50;52.35;100781.16;5124423;27;20184;-57
2023/03/18 05:59:25;;;;;;;9.83;7.07;;;13.50;77.00;;;16.52;52.78;100790.59;5129005;27;20263;-54
2023/03/18 06:01:53;;;;;;;8.10;7.30;;;13.60;77.00;;;16.48;52.73;100789.34;5097703;28;20192;-57
2023/03/18 06:04:20;;;;;;;8.77;7.37;;;13.60;77.00;;;16.46;52.75;100785.28;5096845;28;20565;-57
2023/03/18 06:06:48;;;;;;;8.37;6.63;;;13.60;76.90;;;16.43;52.98;100793.66;5097272;28;20196;-57
2023/03/18 06:09:16;;;;;;;10.90;7.43;;;13.60;76.60;;;16.41;53.03;100793.88;5117921;27;20217;-55
2023/03/18 06:11:44;;;;;;;11.30;7.83;;;13.60;76.90;;;16.39;53.01;100795.94;5117797;28;20235;-57
2023/03/18 06:14:13;;;;;;;9.00;7.87;;;13.60;76.70;;;16.36;52.98;100792.88;5117173;28;20215;-56
2023/03/18 06:16:41;;;;;;;9.90;7.47;;;13.60;76.90;;;16.34;53.22;100787.78;5116298;28;20204;-57
2023/03/18 06:19:09;;;;;;;13.63;8.10;;;13.70;76.90;;;16.30;53.31;100805.19;5117519;28;20210;-57
2023/03/18 06:21:37;;;;;;;11.27;7.40;;;13.60;77.10;;;16.27;53.72;100809.06;5116741;28;20200;-55
2023/03/18 06:24:05;;;;;;;11.77;7.10;;;13.60;77.00;;;16.28;53.56;100799.25;5117196;28;20215;-55
2023/03/18 06:26:32;;;;;;;10.60;7.77;;;13.60;77.30;;;16.24;53.80;100804.16;5118275;28;20215;-56
2023/03/18 06:29:00;;;;;;;13.23;8.63;;;13.60;77.50;;;16.20;53.65;100808.28;5117507;28;20595;-55
2023/03/18 06:31:27;;;;;;;10.40;6.73;;;13.60;77.50;;;16.26;53.85;100812.72;5115752;28;20195;-57
2023/03/18 06:33:54;;;;;;;11.77;7.53;;;13.60;77.30;;;16.33;53.60;100806.59;5117298;28;20605;-55
2023/03/18 06:36:21;;;;;;;10.03;7.87;;;13.60;77.40;;;16.37;53.48;100819.25;5115117;28;20252;-56
2023/03/18 06:38:48;;;;;;;9.63;7.37;;;13.60;77.40;;;16.40;53.26;100825.97;5117179;28;20241;-56
2023/03/18 06:41:15;;;;;;;9.47;7.17;;;13.60;77.50;;;16.45;53.12;100826.19;5117094;28;20192;-57
2023/03/18 06:43:43;;;;;;;10.43;7.17;;;13.60;77.30;;;16.53;53.16;100823.28;5116599;28;20307;-57
2023/03/18 06:46:13;;;;;;;11.27;6.90;;;13.60;77.30;;;16.60;52.85;100830.22;5116776;28;20196;-55
2023/03/18 06:48:40;;;;;;;8.90;6.00;;;13.70;77.30;;;16.66;52.76;100840.00;5115140;28;20285;-55
2023/03/18 06:51:07;;;;;;;10.37;7.30;;;13.70;77.20;;;16.73;52.37;100837.31;5094635;28;20196;-56
2023/03/18 06:53:35;;;;;;;9.03;7.03;;;13.70;77.10;;;16.76;52.10;100837.69;5095626;28;20274;-58
2023/03/18 06:56:04;;;;;;;8.43;7.60;;;13.80;77.10;;;16.80;53.14;100841.59;5096347;28;20195;-56
2023/03/18 06:58:31;;;;;;;10.23;7.47;;;13.70;77.40;;;16.78;52.13;100842.81;5135625;27;20710;-56
2023/03/18 07:00:59;;;;;;;8.53;6.93;;;13.80;77.40;;;16.81;52.13;100842.38;5137269;27;20186;-58
2023/03/18 07:03:27;;;;;;;10.67;8.13;;;13.80;77.50;;;16.83;52.30;100840.31;5114299;27;20212;-56
2023/03/18 07:05:54;;;;;;;13.63;7.47;;;13.80;77.50;;;16.84;52.37;100841.97;5096136;28;20190;-57
2023/03/18 07:08:22;;;;;;;8.70;6.83;;;13.80;77.70;;;16.86;52.35;100845.22;5118943;27;20184;-55
2023/03/18 07:10:52;;;;;;;8.83;7.27;;;13.90;77.70;;;16.91;52.59;100853.38;5124658;27;20705;-57
2023/03/18 07:13:19;;;;;;;13.13;7.90;;;13.90;77.90;;;16.93;52.45;100864.59;5116085;28;20691;-55
2023/03/18 07:15:46;;;;;;;13.17;9.87;;;13.90;77.80;;;16.82;53.05;100876.75;5114905;28;20196;-56
2023/03/18 07:18:14;;;;;;;10.03;9.03;;;13.90;78.80;;;16.74;54.18;100871.66;5112419;27;20240;-56
2023/03/18 07:20:42;;;;;;;10.83;9.40;;;13.90;79.10;;;16.67;54.19;100886.00;5117070;28;20680;-57
2023/03/18 07:23:09;;;;;;;13.17;8.90;;;13.90;79.10;;;16.64;54.25;100873.16;5117529;28;20204;-57
2023/03/18 07:25:37;;;;;;;11.23;9.10;;;13.90;79.10;;;16.65;54.32;100869.44;5117521;28;20408;-58
2023/03/18 07:28:04;;;;;;;11.97;8.97;;;13.90;79.40;;;16.67;54.46;100865.56;5117433;28;20188;-57
2023/03/18 07:30:32;;;;;;;10.83;8.87;;;13.90;79.30;;;16.76;54.34;100884.72;5109056;28;20272;-57
2023/03/18 07:32:59;;;;;;;11.43;9.27;;;13.90;79.50;;;16.77;54.48;100889.03;5114950;28;20223;-57
2023/03/18 07:35:27;;;;;;;15.27;10.00;;;13.90;79.70;;;16.80;54.31;100883.28;5117072;28;20284;-56
2023/03/18 07:37:56;;;;;;;11.13;8.80;;;13.90;79.50;;;16.81;54.46;100891.06;5117939;28;20203;-57
2023/03/18 07:40:23;;;;;;;13.57;9.43;;;14.00;79.70;;;16.84;54.56;100889.81;5117733;28;20187;-55
2023/03/18 07:42:52;;;;;;;10.80;9.43;;;14.00;79.60;;;16.83;54.26;100904.13;5117448;28;20324;-57
2023/03/18 07:45:19;;;;;;;13.53;8.90;;;14.00;79.60;;;16.82;54.67;100907.81;5098811;28;20212;-57
2023/03/18 07:47:47;;;;;;;13.63;9.60;;;14.00;79.60;;;16.79;54.50;100910.91;5097582;28;20561;-56
2023/03/18 07:50:14;;;;;;;12.77;9.23;;;14.00;79.60;;;16.79;54.39;100914.38;5095742;28;20216;-55
2023/03/18 07:52:41;;;;;;;15.93;10.77;;;14.00;79.40;;;16.82;54.49;100921.94;5095749;28;20216;-57
2023/03/18 07:55:11;;;;;;;10.13;8.37;;;14.00;79.60;;;16.83;54.23;100915.56;5095600;28;20238;-57
2023/03/18 07:57:39;;;;;;;10.27;8.37;;;14.00;79.40;;;16.92;53.89;100913.53;5114216;27;20191;-57
2023/03/18 08:00:10;;;;;;;13.53;8.73;;;14.00;79.40;;;16.96;53.75;100917.38;5117285;28;20188;-58
2023/03/18 08:02:37;;;;;;;11.40;8.80;;;14.00;79.40;;;17.00;53.87;100915.91;5116677;28;20194;-57
2023/03/18 08:05:06;;;;;;;13.47;9.40;;;14.10;79.40;;;17.03;53.55;100914.69;5116370;28;20605;-57
2023/03/18 08:07:33;;;;;;;15.97;9.10;;;14.10;79.20;;;17.04;53.50;100917.16;5120788;27;20192;-56
2023/03/18 08:10:00;;;;;;;15.30;8.87;;;14.10;79.20;;;17.08;53.58;100921.00;5131156;27;20188;-58
2023/03/18 08:12:32;;;;;;;15.67;9.73;;;14.10;79.00;;;17.08;53.52;100928.16;5109302;28;20201;-54
2023/03/18 08:15:17;;;;;;;14.10;10.07;;;14.10;79.00;;;17.07;53.84;100927.34;5115501;28;20241;-56
2023/03/18 08:17:44;;;;;;;12.87;9.70;;;14.20;79.10;;;17.12;53.42;100934.69;5116199;28;20582;-57
2023/03/18 08:20:12;;;;;;;14.13;10.23;;;14.20;78.90;;;17.19;53.40;100925.63;5116454;28;20188;-58
2023/03/18 08:22:39;;;;;;;17.00;9.83;;;14.20;78.90;;;17.23;53.41;100934.03;5115349;28;20255;-55
2023/03/18 08:25:10;;;;;;;13.97;9.67;;;14.30;78.90;;;17.24;53.51;100944.44;5115533;28;20226;-55
2023/03/18 08:27:39;;;;;;;14.00;9.53;;;14.30;78.80;;;17.25;53.06;100946.09;5115899;28;20226;-56
2023/03/18 08:30:08;;;;;;;10.10;8.43;;;14.40;78.50;;;17.25;53.35;100943.44;5115888;28;20184;-56
2023/03/18 08:32:36;;;;;;;14.10;9.60;;;14.40;78.30;;;17.29;53.16;100954.44;5115607;28;20214;-57
2023/03/18 08:35:04;;;;;;;15.30;10.60;;;14.40;78.30;;;17.30;53.18;100942.78;5115491;28;20188;-56
2023/03/18 08:37:31;;;;;;;14.67;10.10;;;14.40;78.30;;;17.29;53.12;100955.28;5114126;28;20191;-56
2023/03/18 08:39:58;;;;;;;13.23;9.60;;;14.40;78.80;;;17.29;53.09;100955.28;5097989;28;20715;-57
2023/03/18 08:42:26;;;;;;;11.73;10.00;;;14.50;78.00;;;17.35;53.06;100962.38;5094139;28;20184;-55
2023/03/18 08:44:55;;;;;;;11.37;9.20;;;14.50;78.00;;;17.41;52.92;100961.56;5094506;28;20208;-57
2023/03/18 08:47:23;;;;;;;8.00;7.27;;;14.50;78.70;;;17.51;52.75;100959.28;5095089;28;20257;-59
2023/03/18 08:49:50;;;;;;;14.20;8.83;;;14.50;77.80;;;17.65;52.43;100965.31;5095107;28;20216;-58
2023/03/18 08:52:18;;;;;;;15.90;8.17;;;14.60;77.90;;;17.78;52.20;100967.09;5098152;28;20274;-56
2023/03/18 08:54:46;;;;;;;11.47;8.87;;;14.70;77.90;;;17.91;51.78;100972.31;5114311;27;20211;-56
2023/03/18 08:57:14;;;;;;;14.20;10.23;;;14.70;77.70;;;17.88;51.94;100978.06;5124222;27;20187;-57
2023/03/18 08:59:41;;;;;;;12.83;9.23;;;14.80;77.40;;;17.80;52.02;100973.84;5135302;27;20652;-58
2023/03/18 09:02:17;;;;;;;13.37;9.30;;;14.90;77.10;;;17.75;51.90;100972.84;5134070;27;20718;-57
2023/03/18 09:04:44;;;;;;;12.37;9.70;;;14.90;76.80;;;17.68;52.07;100977.41;5135924;27;20249;-58
2023/03/18 09:07:12;;;;;;;13.60;10.07;;;14.80;76.80;;;17.61;52.46;100976.63;5136517;27;20203;-54
2023/03/18 09:09:39;;;;;;;15.87;10.73;;;14.80;77.00;;;17.51;52.63;100979.72;5114574;28;20192;-56
2023/03/18 09:12:13;;;;;;;11.03;8.23;;;14.80;77.00;;;17.51;52.61;100985.03;5116725;28;20241;-58
2023/03/18 09:14:42;;;;;;;11.60;8.67;;;14.80;77.00;;;17.59;52.37;100985.63;5094707;28;20216;-56
2023/03/18 09:17:11;;;;;;;12.90;10.47;;;14.80;77.20;;;17.72;52.41;100991.91;5108470;28;20555;-56
2023/03/18 09:19:38;;;;;;;13.00;10.47;;;14.80;77.50;;;17.80;52.14;100986.31;5113965;28;20608;-57
2023/03/18 09:22:05;;;;;;;13.97;10.67;;;14.80;77.60;;;17.88;52.18;100986.88;5108094;28;20197;-61
2023/03/18 09:24:34;;;;;;;11.40;10.17;;;14.90;77.60;;;17.94;52.03;100987.84;5112854;28;20243;-57
2023/03/18 09:27:01;;;;;;;11.70;10.03;;;14.90;77.40;;;18.04;51.99;100990.88;5113906;28;20188;-57
2023/03/18 09:29:28;;;;;;;16.43;9.83;;;15.00;77.40;;;18.13;51.79;100979.72;5113402;28;20196;-55
2023/03/18 09:31:55;;;;;;;13.80;9.87;;;15.00;77.00;;;18.24;51.52;100986.16;5113319;28;20216;-57
2023/03/18 09:34:23;;;;;;;12.60;10.13;;;15.20;77.00;;;18.50;51.11;100990.47;5113267;28;20227;-55
2023/03/18 09:36:51;;;;;;;12.07;10.03;;;15.30;77.00;;;18.82;50.59;100994.66;5105204;28;20246;-57
2023/03/18 09:39:19;;;;;;;12.97;10.50;;;15.40;76.90;;;19.23;50.17;100989.44;5092994;28;20196;-58
2023/03/18 09:42:10;;;;;;;11.03;9.90;;;15.60;76.80;;;19.56;49.36;100984.50;5093309;28;20245;-57
2023/03/18 09:44:38;;;;;;;10.53;9.40;;;15.90;76.10;;;19.86;48.12;100989.81;5093893;28;20212;-57
2023/03/18 09:47:34;;;;;;;13.33;10.60;;;16.10;75.10;;;20.13;47.94;100991.00;5093491;28;20211;-56
2023/03/18 09:50:23;;;;;;;14.37;10.83;;;16.40;74.20;;;21.04;47.39;100997.63;5093238;28;20199;-60
2023/03/18 09:53:04;;;;;;;12.93;10.13;;;16.80;74.20;;;22.25;45.53;101000.69;5091528;28;20193;-55
2023/03/18 09:55:40;;;;;;;11.77;10.33;;;17.30;74.00;;;23.25;43.21;101005.84;5093152;28;20234;-54
2023/03/18 09:58:21;;;;;;;14.77;10.47;;;17.90;72.70;;;24.37;41.26;100997.78;5125050;28;20179;-57
2023/03/18 10:00:54;;;;;;;12.13;10.77;;;18.70;70.60;;;25.54;38.43;100998.91;5113155;27;20215;-54
2023/03/18 10:03:36;;;;;;;11.67;9.37;;;19.50;66.90;;;26.36;37.64;100999.78;5112897;28;20214;-55
2023/03/18 10:06:15;;;;;;;12.07;9.67;;;20.30;65.40;;;27.23;35.38;101000.06;5113629;28;20218;-57
2023/03/18 10:08:53;;;;;;;10.43;9.43;;;21.10;63.10;;;28.34;33.62;101001.97;5125350;28;20183;-56
2023/03/18 10:11:27;;;;;;;11.17;9.97;;;21.90;59.70;;;29.20;32.60;101001.06;5112956;28;20191;-59
2023/03/18 10:14:19;;;;;;;13.60;9.90;;;22.70;58.70;;;29.79;29.80;101003.19;5111867;28;20716;-57
2023/03/18 10:17:04;;;;;;;12.97;9.77;;;23.40;54.10;;;29.38;29.31;101001.06;5116366;28;20267;-57
2023/03/18 10:19:33;;;;;;;11.97;10.17;;;23.90;51.00;;;28.93;30.05;101001.63;5112636;28;20679;-55